createdAt,value
2022-11-02T00:00:36.606Z,16.40
2022-11-02T00:03:03.477Z,16.49
2022-11-02T00:05:31.182Z,16.42
2022-11-02T00:07:57.940Z,16.45
2022-11-02T00:10:25.151Z,16.59
2022-11-02T00:12:52.854Z,16.48
2022-11-02T00:15:19.885Z,16.57
2022-11-02T00:17:49.101Z,16.51
2022-11-02T00:20:18.191Z,16.52
2022-11-02T00:22:49.436Z,16.47
2022-11-02T00:25:21.379Z,16.45
2022-11-02T00:27:48.262Z,16.45
2022-11-02T00:30:15.395Z,16.49
2022-11-02T00:32:42.008Z,16.55
2022-11-02T00:35:10.204Z,16.60
2022-11-02T00:37:36.982Z,16.52
2022-11-02T00:40:04.433Z,16.52
2022-11-02T00:42:30.965Z,16.50
2022-11-02T00:44:57.514Z,16.58
2022-11-02T00:47:24.105Z,16.60
2022-11-02T00:49:50.602Z,16.48
2022-11-02T00:52:17.259Z,16.59
2022-11-02T00:54:44.238Z,16.47
2022-11-02T00:57:10.791Z,16.55
2022-11-02T00:59:37.285Z,16.57
2022-11-02T01:02:03.857Z,16.61
2022-11-02T01:04:30.460Z,16.49
2022-11-02T01:06:57.009Z,16.48
2022-11-02T01:09:23.772Z,16.64
2022-11-02T01:11:50.371Z,16.49
2022-11-02T01:14:17.218Z,16.28
2022-11-02T01:19:18.164Z,16.37
2022-11-02T01:21:44.777Z,16.36
2022-11-02T01:24:11.416Z,16.38
2022-11-02T01:26:37.966Z,16.47
2022-11-02T01:29:04.446Z,16.60
2022-11-02T01:31:30.959Z,16.49
2022-11-02T01:33:57.532Z,16.62
2022-11-02T01:36:26.715Z,16.64
2022-11-02T01:38:54.895Z,16.46
2022-11-02T01:41:21.882Z,16.45
2022-11-02T01:43:53.792Z,16.46
2022-11-02T01:46:28.834Z,16.53
2022-11-02T01:49:14.634Z,16.51
2022-11-02T01:51:50.011Z,16.51
2022-11-02T01:54:20.138Z,16.48
2022-11-02T01:56:52.503Z,16.42
2022-11-02T01:59:24.124Z,16.39
2022-11-02T02:01:50.808Z,16.42
2022-11-02T02:04:21.699Z,16.16
2022-11-02T02:06:50.281Z,16.32
2022-11-02T02:09:17.948Z,16.43
2022-11-02T02:11:44.478Z,16.01
2022-11-02T02:14:17.616Z,16.15
2022-11-02T02:17:10.430Z,16.25
2022-11-02T02:19:52.144Z,16.43
2022-11-02T02:22:40.620Z,16.29
2022-11-02T02:25:31.091Z,16.07
2022-11-02T02:28:06.943Z,16.03
2022-11-02T02:30:46.682Z,15.93
2022-11-02T02:33:24.655Z,16.08
2022-11-02T02:36:03.144Z,15.96
2022-11-02T02:38:36.437Z,16.01
2022-11-02T02:41:22.990Z,16.14
2022-11-02T02:43:52.557Z,16.04
2022-11-02T02:46:29.427Z,15.99
2022-11-02T02:48:57.940Z,16.09
2022-11-02T02:51:32.982Z,15.96
2022-11-02T02:54:28.968Z,16.03
2022-11-02T02:56:58.635Z,15.99
2022-11-02T02:59:30.047Z,16.03
2022-11-02T03:01:57.180Z,15.96
2022-11-02T03:04:23.778Z,15.79
2022-11-02T03:06:53.635Z,15.79
2022-11-02T03:09:36.725Z,15.84
2022-11-02T03:12:12.463Z,15.90
2022-11-02T03:14:44.964Z,15.75
2022-11-02T03:17:56.774Z,15.75
2022-11-02T03:20:28.519Z,15.80
2022-11-02T03:23:18.870Z,15.86
2022-11-02T03:25:56.963Z,15.80
2022-11-02T03:28:57.388Z,15.78
2022-11-02T03:31:39.257Z,15.86
2022-11-02T03:34:31.995Z,15.91
2022-11-02T03:37:01.999Z,15.71
2022-11-02T03:39:38.575Z,15.75
2022-11-02T03:42:06.315Z,15.73
2022-11-02T03:44:37.308Z,15.71
2022-11-02T03:47:05.719Z,15.74
2022-11-02T03:49:33.074Z,15.68
2022-11-02T03:52:04.266Z,15.82
2022-11-02T03:54:43.760Z,15.73
2022-11-02T03:57:17.646Z,15.73
2022-11-02T03:59:44.811Z,15.68
2022-11-02T04:02:14.847Z,15.68
2022-11-02T04:04:49.873Z,15.65
2022-11-02T04:07:22.278Z,15.68
2022-11-02T04:09:51.748Z,15.71
2022-11-02T04:12:37.026Z,15.61
2022-11-02T04:15:03.805Z,15.73
2022-11-02T04:17:48.939Z,15.79
2022-11-02T04:20:15.501Z,15.72
2022-11-02T04:23:00.469Z,15.77
2022-11-02T04:25:26.975Z,15.89
2022-11-02T04:27:53.759Z,15.94
2022-11-02T04:30:22.360Z,15.82
2022-11-02T04:33:10.649Z,15.88
2022-11-02T04:35:37.773Z,15.92
2022-11-02T04:38:22.973Z,15.80
2022-11-02T04:41:09.441Z,15.77
2022-11-02T04:43:35.958Z,15.91
2022-11-02T04:46:02.437Z,15.82
2022-11-02T04:48:28.881Z,15.95
2022-11-02T04:50:55.363Z,15.85
2022-11-02T04:53:21.794Z,16.03
2022-11-02T04:55:48.790Z,16.01
2022-11-02T04:58:15.310Z,15.98
2022-11-02T05:00:43.015Z,15.91
2022-11-02T05:03:12.312Z,15.96
2022-11-02T05:05:39.264Z,16.11
2022-11-02T05:08:06.174Z,16.06
2022-11-02T05:10:32.987Z,15.96
2022-11-02T05:13:00.387Z,16.07
2022-11-02T05:15:27.271Z,16.11
2022-11-02T05:17:53.892Z,16.00
2022-11-02T05:20:20.614Z,15.98
2022-11-02T05:22:47.730Z,16.03
2022-11-02T05:25:14.370Z,15.88
2022-11-02T05:27:40.904Z,16.02
2022-11-02T05:30:07.992Z,16.10
2022-11-02T05:32:34.477Z,15.99
2022-11-02T05:35:00.993Z,15.83
2022-11-02T05:37:27.618Z,15.92
2022-11-02T05:39:54.139Z,16.10
2022-11-02T05:42:20.656Z,15.96
2022-11-02T05:44:47.339Z,16.05
2022-11-02T05:47:13.818Z,16.07
2022-11-02T05:49:40.298Z,16.03
2022-11-02T05:52:06.817Z,16.33
2022-11-02T05:54:33.308Z,16.31
2022-11-02T05:56:59.780Z,16.39
2022-11-02T05:59:26.231Z,16.20
2022-11-02T06:01:53.046Z,16.17
2022-11-02T06:04:19.607Z,16.13
2022-11-02T06:06:47.237Z,16.31
2022-11-02T06:09:13.826Z,16.32
2022-11-02T06:11:40.366Z,16.28
2022-11-02T06:14:06.858Z,16.25
2022-11-02T06:16:33.392Z,16.23
2022-11-02T06:18:59.944Z,16.29
2022-11-02T06:21:26.706Z,16.21
2022-11-02T06:23:53.343Z,16.13
2022-11-02T06:26:19.888Z,16.13
2022-11-02T06:28:46.496Z,16.25
2022-11-02T06:31:13.273Z,16.24
2022-11-02T06:33:39.733Z,16.25
2022-11-02T06:36:06.928Z,16.27
2022-11-02T06:38:33.458Z,16.27
2022-11-02T06:41:03.561Z,16.10
2022-11-02T06:43:30.104Z,16.08
2022-11-02T06:45:57.972Z,16.09
2022-11-02T06:48:29.824Z,16.31
2022-11-02T06:51:00.158Z,16.26
2022-11-02T06:53:26.710Z,16.12
2022-11-02T06:55:54.280Z,16.38
2022-11-02T06:58:22.292Z,16.48
2022-11-02T07:00:58.911Z,16.43
2022-11-02T07:03:25.611Z,16.47
2022-11-02T07:05:52.865Z,16.51
2022-11-02T07:08:20.679Z,16.50
2022-11-02T07:10:49.867Z,16.48
2022-11-02T07:13:16.780Z,16.43
2022-11-02T07:15:43.297Z,16.55
2022-11-02T07:18:10.050Z,16.65
2022-11-02T07:20:37.107Z,16.59
2022-11-02T07:23:07.322Z,16.59
2022-11-02T07:25:34.237Z,16.55
2022-11-02T07:28:02.215Z,16.60
2022-11-02T07:30:30.352Z,16.55
2022-11-02T07:32:57.087Z,16.92
2022-11-02T07:35:23.596Z,16.74
2022-11-02T07:38:04.660Z,16.82
2022-11-02T07:40:33.212Z,16.78
2022-11-02T07:43:00.305Z,16.76
2022-11-02T07:45:29.195Z,16.75
2022-11-02T07:47:55.685Z,16.81
2022-11-02T07:50:23.905Z,16.76
2022-11-02T07:52:52.650Z,16.81
2022-11-02T07:55:22.334Z,16.79
2022-11-02T07:57:55.982Z,17.01
2022-11-02T08:00:23.133Z,16.93
2022-11-02T08:02:49.751Z,16.80
2022-11-02T08:05:16.455Z,16.81
2022-11-02T08:07:43.542Z,16.87
2022-11-02T08:10:10.075Z,16.97
2022-11-02T08:12:36.526Z,16.98
2022-11-02T08:15:07.402Z,17.06
2022-11-02T08:17:34.279Z,17.36
2022-11-02T08:20:00.768Z,17.28
2022-11-02T08:22:27.337Z,17.31
2022-11-02T08:24:53.875Z,18.01
2022-11-02T08:27:20.339Z,18.30
2022-11-02T08:29:46.800Z,18.01
2022-11-02T08:32:13.312Z,18.62
2022-11-02T08:34:39.981Z,19.21
2022-11-02T08:37:08.388Z,19.20
2022-11-02T08:39:35.128Z,19.17
2022-11-02T08:42:01.665Z,18.64
2022-11-02T08:44:28.197Z,18.66
2022-11-02T08:46:55.471Z,19.30
2022-11-02T08:49:22.145Z,19.64
2022-11-02T08:51:54.666Z,19.90
2022-11-02T08:54:21.227Z,19.99
2022-11-02T08:56:47.853Z,20.04
2022-11-02T08:59:14.376Z,20.04
2022-11-02T09:01:41.215Z,20.03
2022-11-02T09:04:07.888Z,20.06
2022-11-02T09:06:34.701Z,20.07
2022-11-02T09:09:01.401Z,20.06
2022-11-02T09:11:27.973Z,20.06
2022-11-02T09:13:57.198Z,20.07
2022-11-02T09:16:23.945Z,20.07
2022-11-02T09:18:50.460Z,20.09
2022-11-02T09:21:16.915Z,20.07
2022-11-02T09:23:44.035Z,20.04
2022-11-02T09:26:10.522Z,20.06
2022-11-02T09:28:37.033Z,20.03
2022-11-02T09:31:07.330Z,20.04
2022-11-02T09:33:37.651Z,20.01
2022-11-02T09:36:05.697Z,20.05
2022-11-02T09:38:32.479Z,20.04
2022-11-02T09:40:58.913Z,20.00
2022-11-02T09:43:53.319Z,19.95
2022-11-02T09:46:27.719Z,19.96
2022-11-02T09:48:58.825Z,19.92
2022-11-02T09:51:42.213Z,19.90
2022-11-02T09:54:18.372Z,19.96
2022-11-02T09:56:45.823Z,19.98
2022-11-02T09:59:21.932Z,19.99
2022-11-02T10:02:11.394Z,19.91
2022-11-02T10:04:59.165Z,19.89
2022-11-02T10:07:34.748Z,19.85
2022-11-02T10:10:09.316Z,19.90
2022-11-02T10:13:06.998Z,19.83
2022-11-02T10:15:41.434Z,19.74
2022-11-02T10:18:17.950Z,19.62
2022-11-02T10:20:49.019Z,19.73
2022-11-02T10:23:25.487Z,19.78
2022-11-02T10:25:52.471Z,19.82
2022-11-02T10:28:24.488Z,19.84
2022-11-02T10:30:53.275Z,19.83
2022-11-02T10:33:25.777Z,19.78
2022-11-02T10:36:17.945Z,19.65
2022-11-02T10:39:11.329Z,19.58
2022-11-02T10:41:52.308Z,19.52
2022-11-02T10:44:30.237Z,19.45
2022-11-02T10:46:56.779Z,19.42
2022-11-02T10:50:25.782Z,19.47
2022-11-02T10:52:52.374Z,19.42
2022-11-02T10:55:37.066Z,19.37
2022-11-02T10:58:04.823Z,19.34
2022-11-02T11:00:36.429Z,19.31
2022-11-02T11:03:14.805Z,19.31
2022-11-02T11:05:50.501Z,19.29
2022-11-02T11:08:41.297Z,19.17
2022-11-02T11:11:27.185Z,19.15
2022-11-02T11:16:54.308Z,19.22
2022-11-02T11:19:38.460Z,19.24
2022-11-02T11:22:28.605Z,19.18
2022-11-02T11:25:19.833Z,19.13
2022-11-02T11:27:54.384Z,19.18
2022-11-02T11:30:58.287Z,19.18
2022-11-02T11:33:21.682Z,19.15
2022-11-02T11:35:50.718Z,19.07
2022-11-02T11:38:24.058Z,19.05
2022-11-02T11:41:02.354Z,19.04
2022-11-02T11:43:35.072Z,18.93
2022-11-02T11:46:06.698Z,18.91
2022-11-02T11:48:41.561Z,18.80
2022-11-02T11:51:29.692Z,18.48
2022-11-02T11:54:24.129Z,18.68
2022-11-02T11:56:52.816Z,18.90
2022-11-02T11:59:44.599Z,18.87
2022-11-02T12:02:20.290Z,18.97
2022-11-02T12:04:46.838Z,19.01
2022-11-02T12:07:13.244Z,18.92
2022-11-02T12:10:18.416Z,18.67
2022-11-02T12:13:15.676Z,18.86
2022-11-02T12:16:07.081Z,18.85
2022-11-02T12:18:45.445Z,18.91
2022-11-02T12:21:35.113Z,18.79
2022-11-02T12:24:01.565Z,18.79
2022-11-02T12:26:50.226Z,18.73
2022-11-02T12:29:23.277Z,18.88
2022-11-02T12:32:09.688Z,18.96
2022-11-02T12:35:23.046Z,18.85
2022-11-02T12:37:55.119Z,18.63
2022-11-02T12:40:51.107Z,18.69
2022-11-02T12:43:45.535Z,18.53
2022-11-02T12:46:42.265Z,18.63
2022-11-02T12:49:50.253Z,18.37
2022-11-02T12:52:29.201Z,18.62
2022-11-02T12:54:59.378Z,18.18
2022-11-02T12:57:29.566Z,18.35
2022-11-02T13:00:01.824Z,18.07
2022-11-02T13:02:41.906Z,18.20
2022-11-02T13:05:32.932Z,17.96
2022-11-02T13:08:12.247Z,17.99
2022-11-02T13:10:53.533Z,18.04
2022-11-02T13:13:32.129Z,18.19
2022-11-02T13:16:00.740Z,17.92
2022-11-02T13:18:36.000Z,17.97
2022-11-02T13:21:04.962Z,18.07
2022-11-02T13:23:36.402Z,18.07
2022-11-02T13:26:41.882Z,17.83
2022-11-02T13:29:45.173Z,17.74
2022-11-02T13:32:34.114Z,18.00
2022-11-02T13:35:12.767Z,18.00
2022-11-02T13:37:44.623Z,17.73
2022-11-02T13:40:39.081Z,17.92
2022-11-02T13:43:43.489Z,18.17
2022-11-02T13:46:19.944Z,18.15
2022-11-02T13:48:49.745Z,17.96
2022-11-02T13:51:37.749Z,17.86
2022-11-02T13:54:15.097Z,17.83
2022-11-02T13:56:42.553Z,17.75
2022-11-02T13:59:18.029Z,17.84
2022-11-02T14:01:45.417Z,17.86
2022-11-02T14:04:15.485Z,17.97
2022-11-02T14:06:52.839Z,17.95
2022-11-02T14:09:42.301Z,17.96
2022-11-02T14:12:18.013Z,18.05
2022-11-02T14:14:45.478Z,18.04
2022-11-02T14:17:13.744Z,18.01
2022-11-02T14:19:40.253Z,17.88
2022-11-02T14:22:13.403Z,17.88
2022-11-02T14:24:40.839Z,18.02
2022-11-02T14:27:10.317Z,17.90
2022-11-02T14:29:49.373Z,17.54
2022-11-02T14:32:26.753Z,17.83
2022-11-02T14:35:12.228Z,17.44
2022-11-02T14:37:57.470Z,17.76
2022-11-02T14:41:02.770Z,17.56
2022-11-02T14:43:51.464Z,17.45
2022-11-02T14:46:21.043Z,17.46
2022-11-02T14:48:56.853Z,17.57
2022-11-02T14:51:27.770Z,17.35
2022-11-02T14:53:58.833Z,17.24
2022-11-02T14:56:54.438Z,17.42
2022-11-02T14:59:45.079Z,17.28
2022-11-02T15:02:41.970Z,17.40
2022-11-02T15:05:28.188Z,17.43
2022-11-02T15:08:05.694Z,17.23
2022-11-02T15:10:32.314Z,17.36
2022-11-02T15:13:20.703Z,17.35
2022-11-02T15:15:50.617Z,17.59
2022-11-02T15:18:29.231Z,17.54
2022-11-02T15:21:11.167Z,17.51
2022-11-02T15:23:55.001Z,17.62
2022-11-02T15:26:31.118Z,17.48
2022-11-02T15:29:02.178Z,17.31
2022-11-02T15:31:29.755Z,16.95
2022-11-02T15:33:58.934Z,16.65
2022-11-02T15:36:35.880Z,16.20
2022-11-02T15:39:08.335Z,15.95
2022-11-02T15:41:51.544Z,16.09
2022-11-02T15:44:52.006Z,16.06
2022-11-02T15:47:37.191Z,16.54
2022-11-02T15:50:10.288Z,16.72
2022-11-02T15:53:22.339Z,16.86
2022-11-02T15:56:39.308Z,17.00
2022-11-02T15:59:37.262Z,16.92
2022-11-02T16:02:22.827Z,17.01
2022-11-02T16:04:52.214Z,17.01
2022-11-02T16:07:19.582Z,16.97
2022-11-02T16:09:46.941Z,16.90
2022-11-02T16:12:30.673Z,16.91
2022-11-02T16:15:04.273Z,16.79
2022-11-02T16:17:31.938Z,16.74
2022-11-02T16:20:31.003Z,16.76
2022-11-02T16:23:05.643Z,16.74
2022-11-02T16:25:39.610Z,16.74
2022-11-02T16:28:35.398Z,16.53
2022-11-02T16:31:23.081Z,16.61
2022-11-02T16:33:56.235Z,16.38
2022-11-02T16:36:24.320Z,16.47
2022-11-02T16:39:18.544Z,16.33
2022-11-02T16:41:55.879Z,16.31
2022-11-02T16:44:31.000Z,16.38
2022-11-02T16:47:16.902Z,16.51
2022-11-02T16:49:49.539Z,16.46
2022-11-02T16:52:20.610Z,16.47
2022-11-02T16:54:49.831Z,16.56
2022-11-02T16:57:22.865Z,16.46
2022-11-02T16:59:56.891Z,16.55
2022-11-02T17:02:32.283Z,16.57
2022-11-02T17:05:04.391Z,16.53
2022-11-02T17:07:37.565Z,16.53
2022-11-02T17:10:05.652Z,16.42
2022-11-02T17:12:35.901Z,16.45
2022-11-02T17:15:11.693Z,16.39
2022-11-02T17:17:39.950Z,16.41
2022-11-02T17:20:24.857Z,16.34
2022-11-02T17:22:56.597Z,16.20
2022-11-02T17:25:24.711Z,16.27
2022-11-02T17:27:53.444Z,16.28
2022-11-02T17:30:35.460Z,16.16
2022-11-02T17:33:27.064Z,16.15
2022-11-02T17:36:04.409Z,16.15
2022-11-02T17:38:31.241Z,16.23
2022-11-02T17:40:59.721Z,16.16
2022-11-02T17:43:27.057Z,16.14
2022-11-02T17:46:00.482Z,16.14
2022-11-02T17:48:31.263Z,15.94
2022-11-02T17:51:04.378Z,16.05
2022-11-02T17:53:32.952Z,16.08
2022-11-02T17:55:59.527Z,16.07
2022-11-02T17:58:26.345Z,15.95
2022-11-02T18:00:55.393Z,16.00
2022-11-02T18:03:25.365Z,15.95
2022-11-02T18:05:58.727Z,16.02
2022-11-02T18:08:26.722Z,16.08
2022-11-02T18:10:53.305Z,16.03
2022-11-02T18:13:22.398Z,15.94
2022-11-02T18:15:51.979Z,16.00
2022-11-02T18:18:18.919Z,15.82
2022-11-02T18:20:45.885Z,15.77
2022-11-02T18:23:17.131Z,15.95
2022-11-02T18:25:44.926Z,15.78
2022-11-02T18:28:11.670Z,15.70
2022-11-02T18:30:42.530Z,15.55
2022-11-02T18:33:13.506Z,15.72
2022-11-02T18:35:42.258Z,15.57
2022-11-02T18:38:08.888Z,15.80
2022-11-02T18:40:35.882Z,15.78
2022-11-02T18:43:02.620Z,15.80
2022-11-02T18:47:56.997Z,15.86
2022-11-02T18:50:23.696Z,15.81
2022-11-02T18:52:51.188Z,15.91
2022-11-02T18:55:18.134Z,15.66
2022-11-02T18:57:45.510Z,15.65
2022-11-02T19:00:14.157Z,15.59
2022-11-02T19:02:41.169Z,15.64
2022-11-02T19:05:27.875Z,15.58
2022-11-02T19:08:13.003Z,15.72
2022-11-02T19:10:39.842Z,15.70
2022-11-02T19:13:07.834Z,15.67
2022-11-02T19:15:39.786Z,15.71
2022-11-02T19:18:08.917Z,15.52
2022-11-02T19:20:35.914Z,15.56
2022-11-02T19:23:03.610Z,15.63
2022-11-02T19:25:30.410Z,15.62
2022-11-02T19:27:57.562Z,15.61
2022-11-02T19:30:24.379Z,15.55
2022-11-02T19:32:51.352Z,15.54
2022-11-02T19:35:17.945Z,15.65
2022-11-02T19:37:44.639Z,15.59
2022-11-02T19:40:11.933Z,15.64
2022-11-02T19:42:39.864Z,15.64
2022-11-02T19:45:06.780Z,15.57
2022-11-02T19:47:34.107Z,15.56
2022-11-02T19:50:01.046Z,15.58
2022-11-02T19:52:27.645Z,15.53
2022-11-02T19:54:55.308Z,15.59
2022-11-02T19:57:21.762Z,15.59
2022-11-02T19:59:50.816Z,15.52
2022-11-02T20:02:20.958Z,15.67
2022-11-02T20:04:49.710Z,15.59
2022-11-02T20:07:16.469Z,15.52
2022-11-02T20:09:44.940Z,15.65
2022-11-02T20:12:11.534Z,15.73
2022-11-02T20:14:38.493Z,15.56
2022-11-02T20:17:29.716Z,15.63
2022-11-02T20:19:52.888Z,15.52
2022-11-02T20:22:24.586Z,15.64
2022-11-02T20:24:53.320Z,15.76
2022-11-02T20:27:21.001Z,15.67
2022-11-02T20:29:50.060Z,15.61
2022-11-02T20:32:20.397Z,15.62
2022-11-02T20:34:49.082Z,15.65
2022-11-02T20:37:18.623Z,15.58
2022-11-02T20:39:45.196Z,15.69
2022-11-02T20:42:12.126Z,15.57
2022-11-02T20:44:42.627Z,15.60
2022-11-02T20:47:09.536Z,15.58
2022-11-02T20:49:50.031Z,15.58
2022-11-02T20:52:18.826Z,15.68
2022-11-02T20:54:45.309Z,15.77
2022-11-02T20:57:11.823Z,15.69
2022-11-02T20:59:38.389Z,15.83
2022-11-02T21:02:04.978Z,15.70
2022-11-02T21:04:31.667Z,15.63
2022-11-02T21:06:58.187Z,15.76
2022-11-02T21:09:25.302Z,15.70
2022-11-02T21:12:10.539Z,15.62
2022-11-02T21:14:37.107Z,15.56
2022-11-02T21:17:05.450Z,15.66
2022-11-02T21:19:32.046Z,15.64
2022-11-02T21:22:00.315Z,15.65
2022-11-02T21:24:28.369Z,15.65
2022-11-02T21:26:54.906Z,15.62
2022-11-02T21:29:21.511Z,15.59
2022-11-02T21:31:51.057Z,15.62
2022-11-02T21:34:20.621Z,15.76
2022-11-02T21:36:49.487Z,15.68
2022-11-02T21:39:16.551Z,15.70
2022-11-02T21:41:43.205Z,15.67
2022-11-02T21:44:11.618Z,15.56
2022-11-02T21:46:38.160Z,15.55
2022-11-02T21:49:04.634Z,15.63
2022-11-02T21:51:31.266Z,15.67
2022-11-02T21:53:57.817Z,15.67
2022-11-02T21:56:32.076Z,15.49
2022-11-02T21:58:58.599Z,15.55
2022-11-02T22:01:46.049Z,15.56
2022-11-02T22:04:15.818Z,15.49
2022-11-02T22:06:42.610Z,15.41
2022-11-02T22:09:11.513Z,15.48
2022-11-02T22:11:38.651Z,15.46
2022-11-02T22:14:05.182Z,15.70
2022-11-02T22:16:37.579Z,15.47
2022-11-02T22:19:06.781Z,15.38
2022-11-02T22:21:35.708Z,15.50
2022-11-02T22:24:02.804Z,15.55
2022-11-02T22:26:30.576Z,15.57
2022-11-02T22:28:58.279Z,15.52
2022-11-02T22:31:31.101Z,15.57
2022-11-02T22:34:00.424Z,15.44
2022-11-02T22:36:29.562Z,15.49
2022-11-02T22:38:57.618Z,15.61
2022-11-02T22:41:30.770Z,15.48
2022-11-02T22:44:02.940Z,15.47
2022-11-02T22:46:31.388Z,15.47
2022-11-02T22:48:59.418Z,15.41
2022-11-02T22:51:28.422Z,15.57
2022-11-02T22:54:04.787Z,15.45
2022-11-02T22:56:31.968Z,15.45
2022-11-02T22:58:59.290Z,15.48
2022-11-02T23:01:27.945Z,15.42
2022-11-02T23:03:54.817Z,15.45
2022-11-02T23:06:22.305Z,15.51
2022-11-02T23:08:53.501Z,15.43
2022-11-02T23:11:23.662Z,15.30
2022-11-02T23:13:54.089Z,15.16
2022-11-02T23:16:23.101Z,15.22
2022-11-02T23:19:17.844Z,15.34
2022-11-02T23:22:11.382Z,15.36
2022-11-02T23:25:01.193Z,15.32
2022-11-02T23:27:28.621Z,15.23
2022-11-02T23:30:13.547Z,15.28
2022-11-02T23:32:40.131Z,15.15
2022-11-02T23:35:25.233Z,15.15
2022-11-02T23:38:01.323Z,15.37
2022-11-02T23:40:27.911Z,15.21
2022-11-02T23:42:54.970Z,15.30
2022-11-02T23:45:21.619Z,15.18
2022-11-02T23:47:57.066Z,15.35
2022-11-02T23:50:44.161Z,15.19
2022-11-02T23:53:33.670Z,15.39
2022-11-02T23:56:19.387Z,15.32
2022-11-02T23:58:46.376Z,15.37
